Time;durP1;ratioP1;P1;durP2;ratioP2;P2;SDS_P1;SDS_P2;PMS_P1;PMS_P2;Temp;Humidity;BMP_temperature;BMP_pressure;BME280_temperature;BME280_humidity;BME280_pressure;Samples;Min_cycle;Max_cycle;Signal;HPM_P1;HPM_P2
2022/10/09 00:00:16;;;;;;;21.05;6.10;;;9.80;99.90;;;;;;5072152;28;20038;-76
2022/10/09 00:02:42;;;;;;;24.30;7.40;;;9.80;99.90;;;;;;5072961;28;20029;-75
2022/10/09 00:05:07;;;;;;;16.75;5.95;;;9.70;99.90;;;;;;5070907;28;20544;-75
2022/10/09 00:07:33;;;;;;;17.00;4.40;;;9.70;99.90;;;;;;5072589;28;20070;-76
2022/10/09 00:09:58;;;;;;;23.80;9.10;;;9.70;99.90;;;;;;5071986;28;20477;-76
2022/10/09 00:12:24;;;;;;;27.15;12.95;;;9.70;99.90;;;;;;5071774;28;20053;-75
2022/10/09 00:14:50;;;;;;;18.48;7.50;;;9.70;99.90;;;;;;5072774;28;20100;-77
2022/10/09 00:17:16;;;;;;;17.17;6.25;;;9.60;99.90;;;;;;5072511;28;20067;-76
2022/10/09 00:19:41;;;;;;;19.80;5.40;;;9.60;99.90;;;;;;5069672;28;20039;-75
2022/10/09 00:22:07;;;;;;;14.50;3.78;;;9.60;99.90;;;;;;5072122;28;20046;-76
2022/10/09 00:24:32;;;;;;;9.90;3.55;;;9.60;99.90;;;;;;5072651;28;20020;-76
2022/10/09 00:26:58;;;;;;;8.88;3.75;;;9.50;99.90;;;;;;5072173;28;20059;-77
2022/10/09 00:29:23;;;;;;;8.05;3.03;;;9.50;99.90;;;;;;5074075;28;20032;-76
2022/10/09 00:31:49;;;;;;;12.40;3.53;;;9.50;99.90;;;;;;5074053;28;20029;-75
2022/10/09 00:34:15;;;;;;;7.03;3.38;;;9.40;99.90;;;;;;5069830;28;20404;-76
2022/10/09 00:36:41;;;;;;;8.20;3.00;;;9.40;99.90;;;;;;5071959;28;20036;-76
2022/10/09 00:39:07;;;;;;;15.93;3.92;;;9.40;99.90;;;;;;5071732;28;20028;-75
2022/10/09 00:41:33;;;;;;;14.63;3.42;;;9.30;99.90;;;;;;5073426;28;20038;-75
2022/10/09 00:44:23;;;;;;;14.30;3.30;;;9.40;99.90;;;;;;5069604;28;20016;-76
2022/10/09 00:46:51;;;;;;;9.27;3.00;;;9.30;99.90;;;;;;5069232;28;20029;-75
2022/10/09 00:49:29;;;;;;;10.20;3.17;;;9.30;99.90;;;;;;5069766;28;20055;-75
2022/10/09 00:51:58;;;;;;;7.00;2.78;;;9.30;99.90;;;;;;5071435;28;20071;-76
2022/10/09 00:54:28;;;;;;;11.82;4.05;;;9.30;99.90;;;;;;5071357;28;20036;-76
2022/10/09 00:56:54;;;;;;;9.57;3.30;;;9.40;99.90;;;;;;5068716;28;20040;-75
2022/10/09 00:59:21;;;;;;;9.35;3.42;;;9.20;99.90;;;;;;5072198;28;20035;-76
2022/10/09 01:01:47;;;;;;;9.57;2.90;;;9.30;99.90;;;;;;5071191;28;20051;-75
2022/10/09 01:04:13;;;;;;;13.82;3.38;;;9.20;99.90;;;;;;5068629;28;20021;-75
2022/10/09 01:07:03;;;;;;;16.00;2.65;;;9.20;99.90;;;;;;5071416;28;20060;-74
2022/10/09 01:09:55;;;;;;;9.80;3.40;;;9.20;99.90;;;;;;5071523;28;20020;-75
2022/10/09 01:12:46;;;;;;;11.88;2.83;;;9.20;99.90;;;;;;5071286;28;20047;-76
2022/10/09 01:15:27;;;;;;;12.38;2.88;;;9.10;99.90;;;;;;5071191;28;20603;-75
2022/10/09 01:18:10;;;;;;;10.43;2.85;;;9.20;99.90;;;;;;5070958;28;20039;-75
2022/10/09 01:21:01;;;;;;;9.02;2.80;;;9.10;99.90;;;;;;5071892;28;20021;-75
2022/10/09 01:23:49;;;;;;;10.02;2.30;;;9.10;99.90;;;;;;5071434;28;20056;-75
2022/10/09 01:26:41;;;;;;;11.02;3.00;;;9.10;99.90;;;;;;5071276;28;20021;-75
2022/10/09 01:29:09;;;;;;;8.65;2.75;;;9.10;99.90;;;;;;5070835;28;20471;-75
2022/10/09 01:31:40;;;;;;;7.43;2.92;;;9.10;99.90;;;;;;5071020;28;20035;-74
2022/10/09 01:34:08;;;;;;;12.52;3.13;;;9.10;99.90;;;;;;5071366;28;20067;-74
2022/10/09 01:36:35;;;;;;;10.18;3.45;;;9.00;99.90;;;;;;5070404;28;20037;-74
2022/10/09 01:39:04;;;;;;;10.57;3.05;;;9.00;99.90;;;;;;5070565;28;20044;-75
2022/10/09 01:41:30;;;;;;;7.07;2.67;;;9.00;99.90;;;;;;5073068;28;20024;-75
2022/10/09 01:43:55;;;;;;;6.72;2.42;;;9.00;99.90;;;;;;5075414;28;20031;-75
2022/10/09 01:46:30;;;;;;;9.43;2.70;;;9.00;99.90;;;;;;5075262;28;20035;-75
2022/10/09 01:49:14;;;;;;;;;;;9.00;99.90;;;;;;5075668;28;20463;-75
2022/10/09 01:52:14;;;;;;;4.85;2.63;;;9.00;99.90;;;;;;5057486;28;19928;-74
2022/10/09 01:55:11;;;;;;;7.25;2.90;;;8.90;99.90;;;;;;5040512;28;20041;-75
2022/10/09 01:58:17;;;;;;;13.82;3.00;;;8.90;99.90;;;;;;5075374;28;20388;-75
2022/10/09 02:01:06;;;;;;;6.68;2.78;;;8.90;99.90;;;;;;5043098;28;20063;-75
2022/10/09 02:03:34;;;;;;;15.45;3.00;;;8.90;99.90;;;;;;5073687;28;20036;-75
2022/10/09 02:06:02;;;;;;;14.52;2.97;;;8.90;99.90;;;;;;5074276;28;20029;-75
2022/10/09 02:08:31;;;;;;;18.13;3.35;;;8.90;99.90;;;;;;5074153;28;20025;-74
2022/10/09 02:11:00;;;;;;;8.55;2.75;;;8.90;99.90;;;;;;5074790;28;20028;-74
2022/10/09 02:13:26;;;;;;;10.15;3.45;;;8.90;99.90;;;;;;5074710;28;20021;-75
2022/10/09 02:16:11;;;;;;;58.53;21.48;;;8.80;99.90;;;;;;5073926;28;20091;-75
2022/10/09 02:18:45;;;;;;;62.80;27.40;;;8.90;99.90;;;;;;5074603;28;20020;-75
2022/10/09 02:21:15;;;;;;;;;;;8.80;99.90;;;;;;5074397;28;20033;-75
2022/10/09 02:23:42;;;;;;;30.05;13.63;;;8.90;99.90;;;;;;5074540;28;19912;-75
2022/10/09 02:26:08;;;;;;;27.60;7.10;;;8.80;99.90;;;;;;5074201;28;20017;-75
2022/10/09 02:28:35;;;;;;;14.65;4.10;;;8.80;99.90;;;;;;5074377;28;20020;-74
2022/10/09 02:31:12;;;;;;;10.18;4.35;;;8.80;99.90;;;;;;5055972;28;20024;-74
2022/10/09 02:33:38;;;;;;;10.63;3.22;;;8.80;99.90;;;;;;5074439;28;20032;-74
2022/10/09 02:36:04;;;;;;;9.95;3.30;;;8.80;99.90;;;;;;5073925;28;20041;-75
2022/10/09 02:38:29;;;;;;;7.35;3.05;;;8.70;99.90;;;;;;5074257;28;20016;-75
2022/10/09 02:41:01;;;;;;;12.70;3.03;;;8.70;99.90;;;;;;5074046;28;20029;-75
2022/10/09 02:43:28;;;;;;;10.13;2.70;;;8.60;99.90;;;;;;5074247;28;20032;-75
2022/10/09 02:45:53;;;;;;;11.07;2.80;;;8.60;99.90;;;;;;5074443;28;20021;-75
2022/10/09 02:48:19;;;;;;;9.15;2.85;;;8.50;99.90;;;;;;5073412;28;20037;-76
2022/10/09 02:50:45;;;;;;;8.95;3.15;;;8.50;99.90;;;;;;5074450;28;20096;-74
2022/10/09 02:53:10;;;;;;;9.02;2.72;;;8.50;99.90;;;;;;5073308;28;20020;-75
2022/10/09 02:55:36;;;;;;;19.02;3.05;;;8.40;99.90;;;;;;5073122;28;20485;-74
2022/10/09 02:58:03;;;;;;;7.13;2.88;;;8.20;99.90;;;;;;5073899;28;20055;-74
2022/10/09 03:00:28;;;;;;;5.97;2.60;;;8.40;99.90;;;;;;5073723;28;20025;-75
2022/10/09 03:02:54;;;;;;;9.32;2.83;;;8.20;99.90;;;;;;5073882;28;20048;-75
2022/10/09 03:05:20;;;;;;;10.77;2.83;;;8.20;99.90;;;;;;5072878;28;20056;-74
2022/10/09 03:07:50;;;;;;;7.82;2.30;;;8.20;99.90;;;;;;5073988;28;20027;-74
2022/10/09 03:10:19;;;;;;;8.93;2.72;;;8.10;99.90;;;;;;5073764;28;20040;-75
2022/10/09 03:12:45;;;;;;;11.13;3.08;;;8.20;99.90;;;;;;5055135;28;20053;-74
2022/10/09 03:15:11;;;;;;;8.35;3.40;;;8.10;99.90;;;;;;5073518;28;20028;-74
2022/10/09 03:17:37;;;;;;;16.95;3.13;;;8.10;99.90;;;;;;5072989;28;20033;-74
2022/10/09 03:20:03;;;;;;;8.88;2.88;;;8.00;99.90;;;;;;5073617;28;20033;-75
2022/10/09 03:22:29;;;;;;;7.10;2.88;;;8.00;99.90;;;;;;5073607;28;20020;-75
2022/10/09 03:24:54;;;;;;;10.80;2.65;;;8.00;99.90;;;;;;5073691;28;20113;-75
2022/10/09 03:27:20;;;;;;;11.10;3.58;;;8.00;99.90;;;;;;5073262;28;20021;-75
2022/10/09 03:29:46;;;;;;;10.50;3.08;;;7.90;99.90;;;;;;5073037;28;20021;-74
2022/10/09 03:32:12;;;;;;;8.35;2.92;;;8.00;99.90;;;;;;5073415;28;20578;-73
2022/10/09 03:34:37;;;;;;;6.32;2.80;;;7.90;99.90;;;;;;5072905;28;20021;-75
2022/10/09 03:37:04;;;;;;;5.05;2.88;;;7.90;99.90;;;;;;5072955;28;20029;-74
2022/10/09 03:39:29;;;;;;;8.32;3.10;;;7.90;99.90;;;;;;5073377;28;20043;-74
2022/10/09 03:41:55;;;;;;;8.60;3.40;;;7.90;99.90;;;;;;5069494;28;20040;-74
2022/10/09 03:44:20;;;;;;;12.02;3.10;;;7.90;99.90;;;;;;5073289;28;20029;-75
2022/10/09 03:46:46;;;;;;;7.30;3.30;;;7.90;99.90;;;;;;5070729;28;20055;-74
2022/10/09 03:49:12;;;;;;;11.45;3.45;;;7.90;99.90;;;;;;5073174;28;20028;-74
2022/10/09 03:51:38;;;;;;;11.27;2.90;;;7.90;99.90;;;;;;5072912;28;20062;-74
2022/10/09 03:54:03;;;;;;;11.95;3.58;;;7.90;99.90;;;;;;5072956;28;20085;-74
2022/10/09 03:56:29;;;;;;;8.57;2.67;;;7.90;99.90;;;;;;5072460;28;20025;-74
2022/10/09 03:58:55;;;;;;;8.60;2.90;;;7.80;99.90;;;;;;5072378;28;20464;-74
2022/10/09 04:01:20;;;;;;;5.45;2.80;;;7.90;99.90;;;;;;5072910;28;20017;-75
2022/10/09 04:03:46;;;;;;;13.88;3.28;;;7.80;99.90;;;;;;5071344;28;20020;-73
2022/10/09 04:06:12;;;;;;;12.27;3.70;;;7.80;99.90;;;;;;5071792;28;21391;-73
2022/10/09 04:08:37;;;;;;;5.85;2.80;;;7.80;99.90;;;;;;5071881;28;20032;-73
2022/10/09 04:11:03;;;;;;;14.63;3.75;;;7.80;99.90;;;;;;5072208;28;20025;-75
2022/10/09 04:13:29;;;;;;;11.23;3.58;;;7.80;99.90;;;;;;5071644;28;20020;-75
2022/10/09 04:15:55;;;;;;;10.93;3.17;;;7.80;99.90;;;;;;5072522;28;20116;-74
2022/10/09 04:18:22;;;;;;;8.55;2.88;;;7.70;99.90;;;;;;5072372;28;20020;-75
2022/10/09 04:20:50;;;;;;;5.95;3.03;;;7.70;99.90;;;;;;5072769;28;20020;-74
2022/10/09 04:23:17;;;;;;;9.43;3.25;;;7.70;99.90;;;;;;5072334;28;20012;-75
2022/10/09 04:25:44;;;;;;;9.35;3.65;;;7.60;99.90;;;;;;5069177;28;21061;-73
2022/10/09 04:28:10;;;;;;;7.40;3.08;;;7.70;99.90;;;;;;5072049;28;20035;-74
2022/10/09 04:30:35;;;;;;;10.75;3.35;;;7.60;99.90;;;;;;5071934;28;20048;-74
2022/10/09 04:33:01;;;;;;;9.88;3.15;;;7.60;99.90;;;;;;5072036;28;20040;-75
2022/10/09 04:35:27;;;;;;;8.30;3.08;;;7.60;99.90;;;;;;5071328;28;20059;-74
2022/10/09 04:37:52;;;;;;;12.88;3.88;;;7.60;99.90;;;;;;5072521;28;20031;-74
2022/10/09 04:40:18;;;;;;;8.23;3.05;;;7.50;99.90;;;;;;5072128;28;20029;-76
2022/10/09 04:42:43;;;;;;;8.18;3.42;;;7.50;99.90;;;;;;5071207;28;20093;-75
2022/10/09 04:45:10;;;;;;;10.82;3.58;;;7.50;99.90;;;;;;5072101;28;20040;-75
2022/10/09 04:47:39;;;;;;;10.32;2.80;;;7.50;99.90;;;;;;5071968;28;20064;-74
2022/10/09 04:50:06;;;;;;;10.48;3.50;;;7.40;99.90;;;;;;5071836;28;20029;-75
2022/10/09 04:52:32;;;;;;;12.30;3.70;;;7.50;99.90;;;;;;5071462;28;20027;-76
2022/10/09 04:54:58;;;;;;;16.17;5.03;;;7.40;99.90;;;;;;5071441;28;20024;-74
2022/10/09 04:57:23;;;;;;;18.85;5.13;;;7.50;99.90;;;;;;5071292;28;20047;-75
2022/10/09 04:59:49;;;;;;;15.57;4.93;;;7.50;99.90;;;;;;5072328;28;20032;-75
2022/10/09 05:02:14;;;;;;;16.92;5.15;;;7.50;99.90;;;;;;5071015;28;20029;-75
2022/10/09 05:04:40;;;;;;;10.15;4.30;;;7.60;99.90;;;;;;5067331;28;20035;-75
2022/10/09 05:07:05;;;;;;;10.52;4.85;;;7.50;99.90;;;;;;5067792;28;20027;-74
2022/10/09 05:09:31;;;;;;;10.18;4.65;;;7.50;99.90;;;;;;5069347;28;20026;-73
2022/10/09 05:11:57;;;;;;;17.20;5.72;;;7.50;99.90;;;;;;5071006;28;20041;-75
2022/10/09 05:14:22;;;;;;;20.13;5.95;;;7.60;99.90;;;;;;5070786;28;20033;-75
2022/10/09 05:16:50;;;;;;;13.75;5.03;;;7.60;99.90;;;;;;5069716;28;20033;-75
2022/10/09 05:19:16;;;;;;;16.13;5.35;;;7.50;99.90;;;;;;5070487;28;20396;-76
2022/10/09 05:21:42;;;;;;;13.90;5.10;;;7.60;99.90;;;;;;5071090;28;20046;-76
2022/10/09 05:24:08;;;;;;;14.18;5.20;;;7.60;99.90;;;;;;5069195;28;20039;-75
2022/10/09 05:26:33;;;;;;;20.27;5.53;;;7.60;99.90;;;;;;5070702;28;20100;-74
2022/10/09 05:28:59;;;;;;;15.38;5.22;;;7.60;99.90;;;;;;5071510;28;20028;-75
2022/10/09 05:31:28;;;;;;;16.88;5.38;;;7.60;99.90;;;;;;5071851;28;20071;-74
2022/10/09 05:33:57;;;;;;;12.30;4.63;;;7.50;99.90;;;;;;5072504;28;20392;-75
2022/10/09 05:36:22;;;;;;;14.00;4.95;;;7.50;99.90;;;;;;5070419;28;20049;-75
2022/10/09 05:38:48;;;;;;;11.65;5.18;;;7.50;99.90;;;;;;5074023;28;20056;-75
2022/10/09 05:41:15;;;;;;;14.20;4.65;;;7.50;99.90;;;;;;5070737;28;20025;-74
2022/10/09 05:43:43;;;;;;;12.23;5.20;;;7.40;99.90;;;;;;5069632;28;20025;-74
2022/10/09 05:46:13;;;;;;;8.45;4.20;;;7.50;99.90;;;;;;5075660;28;20025;-76
2022/10/09 05:48:40;;;;;;;14.85;5.05;;;7.40;99.90;;;;;;5074106;28;20132;-73
2022/10/09 05:51:15;;;;;;;18.30;3.17;;;7.30;99.90;;;;;;5070633;28;20028;-75
2022/10/09 05:53:42;;;;;;;12.40;3.25;;;7.30;99.90;;;;;;5069798;28;20063;-74
2022/10/09 05:56:30;;;;;;;12.80;3.50;;;7.20;99.90;;;;;;5070826;28;20053;-72
2022/10/09 05:59:03;;;;;;;6.60;3.13;;;7.10;99.90;;;;;;5064323;28;20116;-74
2022/10/09 06:01:32;;;;;;;6.53;3.17;;;7.00;99.90;;;;;;5071061;28;20035;-73
2022/10/09 06:03:59;;;;;;;8.85;3.60;;;7.00;99.90;;;;;;5070333;28;20040;-74
2022/10/09 06:06:28;;;;;;;6.90;3.90;;;7.00;99.90;;;;;;5071675;28;20037;-74
2022/10/09 06:08:55;;;;;;;9.95;3.17;;;7.00;99.90;;;;;;5070416;28;20088;-73
2022/10/09 06:11:27;;;;;;;16.33;4.15;;;7.00;99.90;;;;;;5069880;28;20782;-73
2022/10/09 06:13:54;;;;;;;10.68;3.97;;;6.90;99.90;;;;;;5071374;28;20041;-73
2022/10/09 06:16:23;;;;;;;21.05;4.50;;;7.00;99.90;;;;;;5070527;28;20123;-73
2022/10/09 06:18:49;;;;;;;85.95;5.82;;;6.90;99.90;;;;;;5069337;28;20066;-73
2022/10/09 06:21:14;;;;;;;12.18;5.35;;;7.00;99.90;;;;;;5070850;28;20037;-73
2022/10/09 06:23:40;;;;;;;13.82;5.85;;;6.90;99.90;;;;;;5070033;28;20034;-72
2022/10/09 06:26:09;;;;;;;12.88;6.65;;;7.00;99.90;;;;;;5069294;28;20044;-73
2022/10/09 06:28:35;;;;;;;13.55;7.03;;;7.00;99.90;;;;;;5074125;28;20025;-72
2022/10/09 06:31:01;;;;;;;12.57;7.05;;;7.00;99.90;;;;;;5074485;28;20021;-72
2022/10/09 06:33:30;;;;;;;48.90;9.57;;;7.00;99.90;;;;;;5074031;28;20055;-73
2022/10/09 06:35:59;;;;;;;107.80;9.65;;;7.00;99.90;;;;;;5075149;28;20029;-73
2022/10/09 06:38:26;;;;;;;56.75;9.52;;;7.10;99.90;;;;;;5075883;28;20029;-71
2022/10/09 06:40:52;;;;;;;99.45;7.90;;;7.20;99.90;;;;;;5073649;28;20044;-73
2022/10/09 06:43:19;;;;;;;28.23;6.35;;;7.20;99.90;;;;;;5074396;28;20059;-73
2022/10/09 06:45:44;;;;;;;11.57;6.40;;;7.20;99.90;;;;;;5073878;28;20048;-72
2022/10/09 06:48:10;;;;;;;102.75;7.57;;;7.30;99.90;;;;;;5075989;28;20033;-73
2022/10/09 06:50:36;;;;;;;26.40;6.82;;;7.30;99.90;;;;;;5074429;28;20052;-72
2022/10/09 06:53:05;;;;;;;40.25;7.25;;;7.40;99.90;;;;;;5073178;28;20027;-72
2022/10/09 06:55:31;;;;;;;45.75;9.20;;;7.40;99.90;;;;;;5064969;28;20036;-74
2022/10/09 06:57:58;;;;;;;47.47;13.45;;;7.50;99.90;;;;;;5072659;28;20025;-74
2022/10/09 07:00:24;;;;;;;48.58;7.88;;;7.50;99.90;;;;;;5071347;28;20041;-73
2022/10/09 07:02:54;;;;;;;22.15;5.50;;;7.60;99.90;;;;;;5074539;28;20028;-73
2022/10/09 07:05:20;;;;;;;13.68;6.05;;;7.60;99.90;;;;;;5074679;28;20028;-73
2022/10/09 07:07:45;;;;;;;20.25;6.53;;;7.70;99.90;;;;;;5072861;28;20114;-73
2022/10/09 07:10:11;;;;;;;18.65;7.88;;;7.70;99.90;;;;;;5063413;28;20190;-73
2022/10/09 07:12:37;;;;;;;15.98;8.95;;;7.90;99.90;;;;;;5073063;28;20509;-73
2022/10/09 07:15:05;;;;;;;16.48;7.43;;;7.90;99.90;;;;;;5068388;28;20028;-74
2022/10/09 07:17:31;;;;;;;21.58;8.32;;;7.90;99.90;;;;;;5072616;28;20058;-73
2022/10/09 07:19:57;;;;;;;21.35;8.00;;;8.00;99.90;;;;;;5071869;28;20100;-74
2022/10/09 07:22:23;;;;;;;23.05;9.35;;;8.10;99.90;;;;;;5071008;28;20071;-74
2022/10/09 07:24:49;;;;;;;19.52;7.90;;;8.20;99.90;;;;;;5072762;28;20025;-72
2022/10/09 07:27:16;;;;;;;17.35;9.32;;;8.40;99.90;;;;;;5075629;28;20248;-72
2022/10/09 07:29:41;;;;;;;19.02;9.27;;;8.50;99.90;;;;;;5072752;28;20027;-73
2022/10/09 07:32:07;;;;;;;18.45;8.38;;;8.60;99.90;;;;;;5072347;28;20115;-74
2022/10/09 07:34:33;;;;;;;19.95;7.75;;;8.70;99.90;;;;;;5072788;28;20021;-75
2022/10/09 07:36:58;;;;;;;13.30;7.28;;;8.80;99.90;;;;;;5073478;28;20032;-75
2022/10/09 07:39:24;;;;;;;11.38;5.10;;;9.00;99.90;;;;;;5073761;28;20016;-75
2022/10/09 07:41:51;;;;;;;15.30;6.05;;;9.20;99.90;;;;;;5072903;28;20029;-74
2022/10/09 07:44:17;;;;;;;11.63;5.88;;;9.40;99.90;;;;;;5053861;28;20068;-74
2022/10/09 07:46:43;;;;;;;13.52;5.68;;;9.60;99.90;;;;;;5073351;28;20032;-75
2022/10/09 07:49:09;;;;;;;13.30;5.22;;;9.80;99.90;;;;;;5073023;28;20036;-73
2022/10/09 07:51:35;;;;;;;10.60;5.53;;;10.00;99.90;;;;;;5072570;28;20047;-73
2022/10/09 07:54:01;;;;;;;10.10;5.10;;;10.30;99.90;;;;;;5070986;28;20045;-75
2022/10/09 07:56:29;;;;;;;9.45;5.22;;;10.40;99.90;;;;;;5072489;28;20032;-75
2022/10/09 07:58:58;;;;;;;16.08;6.07;;;10.50;99.90;;;;;;5072028;28;20112;-76
2022/10/09 08:01:26;;;;;;;13.32;4.97;;;10.60;99.90;;;;;;5070782;28;20031;-76
2022/10/09 08:03:52;;;;;;;14.95;5.80;;;10.80;99.90;;;;;;5074420;28;20032;-78
2022/10/09 08:06:19;;;;;;;15.30;6.15;;;10.80;99.90;;;;;;5073161;28;20112;-76
2022/10/09 08:08:48;;;;;;;13.45;5.95;;;10.90;99.90;;;;;;5072255;28;20029;-75
2022/10/09 08:11:16;;;;;;;12.98;5.50;;;11.00;99.90;;;;;;5069670;28;20036;-76
2022/10/09 08:13:42;;;;;;;13.18;5.85;;;10.90;99.90;;;;;;5071621;28;20024;-76
2022/10/09 08:16:09;;;;;;;12.82;5.80;;;10.90;99.90;;;;;;5073126;28;20032;-76
2022/10/09 08:18:36;;;;;;;14.02;6.38;;;10.80;99.90;;;;;;5063665;28;20059;-76
2022/10/09 08:21:08;;;;;;;11.88;6.50;;;10.90;99.90;;;;;;5068151;28;20020;-77
2022/10/09 08:23:34;;;;;;;14.50;6.20;;;11.00;99.90;;;;;;5075479;28;20016;-71
2022/10/09 08:25:59;;;;;;;14.80;6.88;;;11.00;99.90;;;;;;5072629;28;20036;-75
2022/10/09 08:28:25;;;;;;;16.48;6.50;;;11.00;99.90;;;;;;5074844;28;20492;-76
2022/10/09 08:30:51;;;;;;;16.52;6.60;;;11.10;99.90;;;;;;5060259;28;21419;-75
2022/10/09 08:33:22;;;;;;;19.48;6.30;;;11.10;99.90;;;;;;5072242;28;20028;-75
2022/10/09 08:35:48;;;;;;;14.60;6.50;;;11.20;99.90;;;;;;5068368;28;20092;-74
2022/10/09 08:38:15;;;;;;;12.60;5.65;;;11.20;99.90;;;;;;5066939;28;20024;-75
2022/10/09 08:41:19;;;;;;;17.45;6.28;;;11.30;99.90;;;;;;5070763;28;20029;-76
2022/10/09 08:43:49;;;;;;;19.42;6.53;;;11.30;99.90;;;;;;5024021;28;20100;-76
2022/10/09 08:46:59;;;;;;;24.63;7.28;;;11.40;99.90;;;;;;5051991;28;20039;-74
2022/10/09 08:49:58;;;;;;;12.45;5.63;;;11.50;99.90;;;;;;5040005;28;20051;-76
2022/10/09 08:52:36;;;;;;;16.50;5.88;;;11.60;99.90;;;;;;5054918;28;20060;-74
2022/10/09 08:55:14;;;;;;;14.15;6.50;;;11.60;99.90;;;;;;5069720;28;20029;-74
2022/10/09 08:57:40;;;;;;;21.40;7.32;;;11.70;99.90;;;;;;5070938;28;20578;-75
2022/10/09 09:00:17;;;;;;;22.58;6.38;;;11.80;99.90;;;;;;5070307;28;20056;-76
2022/10/09 09:03:02;;;;;;;11.02;5.93;;;11.90;99.90;;;;;;5071085;28;20028;-76
2022/10/09 09:06:12;;;;;;;15.10;6.70;;;12.00;99.90;;;;;;5070371;28;20025;-75
2022/10/09 09:09:00;;;;;;;20.15;7.70;;;12.00;99.90;;;;;;5067154;28;20033;-75
2022/10/09 09:12:03;;;;;;;26.08;8.82;;;12.10;99.90;;;;;;5071084;28;20131;-75
2022/10/09 09:14:43;;;;;;;16.90;6.22;;;12.20;99.90;;;;;;5070107;28;20028;-73
2022/10/09 09:17:39;;;;;;;15.45;5.82;;;12.30;99.90;;;;;;5071418;28;20552;-75
2022/10/09 09:20:13;;;;;;;16.25;5.88;;;12.30;99.90;;;;;;5071431;28;20016;-75
2022/10/09 09:22:43;;;;;;;11.43;4.75;;;12.40;99.90;;;;;;5071894;28;20025;-76
2022/10/09 09:25:27;;;;;;;11.82;5.28;;;12.50;99.90;;;;;;5071540;28;20071;-68
2022/10/09 09:27:56;;;;;;;14.95;5.22;;;12.50;99.90;;;;;;5072202;28;20036;-72
2022/10/09 09:30:29;;;;;;;13.65;5.68;;;12.60;99.90;;;;;;5051790;28;20032;-75
2022/10/09 09:33:10;;;;;;;13.80;5.22;;;12.70;99.90;;;;;;5072875;28;20021;-76
2022/10/09 09:36:13;;;;;;;13.35;4.57;;;12.70;99.90;;;;;;5071543;28;20040;-74
2022/10/09 09:38:38;;;;;;;10.27;4.43;;;12.80;99.90;;;;;;5059395;28;20044;-72
2022/10/09 09:41:04;;;;;;;14.80;4.22;;;12.90;99.90;;;;;;5075190;28;20032;-73
2022/10/09 09:43:30;;;;;;;11.23;3.65;;;13.00;99.90;;;;;;5072869;28;20031;-75
2022/10/09 09:45:57;;;;;;;11.23;3.47;;;12.90;99.90;;;;;;5070687;28;20023;-76
2022/10/09 09:48:36;;;;;;;12.57;3.85;;;13.10;99.90;;;;;;5071447;28;20025;-73
2022/10/09 09:51:04;;;;;;;10.50;3.85;;;13.20;99.90;;;;;;5070803;28;20054;-77
2022/10/09 09:53:32;;;;;;;11.40;3.55;;;13.30;99.90;;;;;;5072331;28;20389;-78
2022/10/09 09:55:58;;;;;;;9.68;3.58;;;13.30;99.90;;;;;;5065535;28;20037;-76
2022/10/09 09:58:35;;;;;;;11.88;3.58;;;13.40;99.90;;;;;;5070773;28;20036;-75
2022/10/09 10:01:03;;;;;;;9.63;4.00;;;13.40;99.90;;;;;;5070686;28;20112;-71
2022/10/09 10:03:30;;;;;;;12.00;3.58;;;13.50;99.90;;;;;;5074519;28;20114;-76
2022/10/09 10:05:56;;;;;;;16.27;3.58;;;13.50;99.90;;;;;;5076465;28;20033;-76
2022/10/09 10:08:30;;;;;;;9.95;3.15;;;13.50;99.90;;;;;;5076089;28;20025;-78
2022/10/09 10:10:58;;;;;;;5.22;2.80;;;13.60;99.90;;;;;;5074411;28;20076;-76
2022/10/09 10:13:57;;;;;;;13.38;4.20;;;13.70;99.90;;;;;;5076156;28;20049;-77
2022/10/09 10:16:26;;;;;;;15.10;3.22;;;13.80;99.90;;;;;;5071544;28;20055;-73
2022/10/09 10:18:53;;;;;;;13.90;3.47;;;13.90;99.90;;;;;;5075381;28;20055;-70
2022/10/09 10:21:20;;;;;;;16.42;4.63;;;13.90;99.90;;;;;;5074954;28;20032;-73
2022/10/09 10:23:45;;;;;;;22.27;9.07;;;13.90;99.90;;;;;;5074369;28;20083;-74
2022/10/09 10:26:41;;;;;;;10.70;3.28;;;14.00;99.90;;;;;;5074637;28;20021;-75
2022/10/09 10:29:24;;;;;;;14.70;5.85;;;14.00;99.90;;;;;;5077353;28;20038;-72
2022/10/09 10:32:22;;;;;;;7.22;2.42;;;14.10;99.90;;;;;;5073669;28;20028;-73
2022/10/09 10:34:51;;;;;;;11.02;2.95;;;14.20;99.90;;;;;;5073683;28;20031;-74
2022/10/09 10:37:29;;;;;;;10.70;2.22;;;14.30;99.90;;;;;;5071233;28;20112;-75
2022/10/09 10:40:19;;;;;;;18.58;4.47;;;14.40;99.90;;;;;;5074298;28;20032;-75
2022/10/09 10:42:51;;;;;;;11.88;3.72;;;14.50;99.90;;;;;;5074513;28;20039;-70
2022/10/09 10:45:37;;;;;;;12.32;3.50;;;14.60;99.90;;;;;;5074075;28;20474;-70
2022/10/09 10:48:08;;;;;;;15.32;2.83;;;14.60;99.90;;;;;;5074756;28;20024;-76
2022/10/09 10:50:44;;;;;;;10.70;2.25;;;14.70;99.90;;;;;;5075250;28;20035;-75
2022/10/09 10:53:33;;;;;;;10.02;1.92;;;14.90;99.90;;;;;;5075196;28;20032;-69
2022/10/09 10:56:05;;;;;;;8.90;2.97;;;15.00;99.90;;;;;;5063436;28;20075;-74
2022/10/09 10:59:00;;;;;;;10.88;1.95;;;15.10;99.90;;;;;;5074294;28;20025;-74
2022/10/09 11:02:13;;;;;;;10.55;3.70;;;15.20;99.90;;;;;;5074364;28;20025;-75
2022/10/09 11:05:17;;;;;;;7.68;2.22;;;15.50;99.90;;;;;;5066759;28;20037;-74
2022/10/09 11:08:02;;;;;;;9.13;2.10;;;15.70;99.90;;;;;;5073646;28;20037;-76
2022/10/09 11:10:54;;;;;;;9.38;4.13;;;15.90;99.90;;;;;;5068856;28;20830;-76
2022/10/09 11:13:22;;;;;;;15.07;2.70;;;16.00;99.90;;;;;;5055099;28;20052;-75
2022/10/09 11:16:10;;;;;;;11.23;2.28;;;16.10;99.90;;;;;;5074106;28;20025;-75
2022/10/09 11:19:08;;;;;;;2.80;1.30;;;16.00;99.90;;;;;;5073195;28;20473;-75
2022/10/09 11:21:52;;;;;;;10.30;1.90;;;15.90;99.90;;;;;;5070622;28;20047;-73
2022/10/09 11:24:51;;;;;;;11.68;3.17;;;15.90;99.90;;;;;;5073303;28;20029;-75
2022/10/09 11:27:20;;;;;;;9.57;2.15;;;15.90;99.90;;;;;;5073304;28;20119;-75
2022/10/09 11:29:57;;;;;;;11.95;2.88;;;15.80;99.90;;;;;;5073865;28;20028;-73
2022/10/09 11:32:26;;;;;;;8.02;2.55;;;15.70;99.90;;;;;;5075263;28;20043;-75
2022/10/09 11:35:15;;;;;;;14.45;2.58;;;15.80;99.90;;;;;;5072961;28;20047;-76
2022/10/09 11:37:44;;;;;;;6.88;2.20;;;15.90;99.90;;;;;;5073782;28;20120;-76
2022/10/09 11:40:18;;;;;;;9.30;1.88;;;15.90;99.90;;;;;;5073209;28;20396;-75
2022/10/09 11:42:54;;;;;;;6.75;1.80;;;16.10;99.90;;;;;;5073548;28;20564;-74
2022/10/09 11:45:23;;;;;;;3.08;1.50;;;16.30;99.90;;;;;;5073819;28;20041;-74
2022/10/09 11:48:00;;;;;;;8.23;1.95;;;16.50;99.90;;;;;;5074928;28;20038;-73
2022/10/09 11:50:52;;;;;;;12.20;2.28;;;16.40;99.90;;;;;;5073567;28;20041;-71
2022/10/09 11:53:21;;;;;;;7.80;1.80;;;16.30;99.90;;;;;;5068077;28;20048;-74
2022/10/09 11:55:47;;;;;;;6.28;1.70;;;15.90;99.90;;;;;;5072742;28;20036;-74
2022/10/09 11:58:21;;;;;;;10.88;2.17;;;15.80;99.90;;;;;;5072787;28;20041;-75
2022/10/09 12:00:52;;;;;;;10.20;2.55;;;16.10;99.90;;;;;;5075741;28;20028;-73
2022/10/09 12:03:26;;;;;;;3.90;1.92;;;16.40;99.90;;;;;;5073845;28;20636;-71
2022/10/09 12:06:04;;;;;;;5.88;2.58;;;16.70;99.90;;;;;;5055190;28;20416;-75
2022/10/09 12:08:30;;;;;;;9.30;3.20;;;17.00;99.90;;;;;;5069452;28;20044;-70
2022/10/09 12:11:09;;;;;;;6.93;2.08;;;17.30;99.90;;;;;;5071928;28;20033;-72
2022/10/09 12:13:37;;;;;;;4.95;1.88;;;17.70;99.90;;;;;;5053566;28;20037;-72
2022/10/09 12:16:05;;;;;;;8.82;2.53;;;17.70;99.90;;;;;;5051686;28;20037;-76
2022/10/09 12:18:43;;;;;;;14.85;4.30;;;17.70;99.90;;;;;;5050401;28;20018;-75
2022/10/09 12:21:23;;;;;;;10.13;3.38;;;17.70;99.90;;;;;;5052076;28;20044;-71
2022/10/09 12:23:50;;;;;;;5.38;2.30;;;17.60;99.90;;;;;;5034349;28;20032;-71
2022/10/09 12:26:17;;;;;;;8.52;3.15;;;17.60;99.90;;;;;;5051606;28;20458;-73
2022/10/09 12:28:47;;;;;;;5.45;2.40;;;17.70;99.90;;;;;;5054606;28;20037;-74
2022/10/09 12:31:19;;;;;;;6.53;2.15;;;17.80;99.90;;;;;;5052589;28;20020;-71
2022/10/09 12:33:53;;;;;;;7.82;2.40;;;18.00;99.90;;;;;;5052624;28;20052;-72
2022/10/09 12:36:25;;;;;;;10.60;1.98;;;18.20;99.90;;;;;;5051966;28;20132;-71
2022/10/09 12:38:51;;;;;;;9.95;1.90;;;18.30;99.90;;;;;;5052258;28;20029;-74
2022/10/09 12:41:28;;;;;;;4.07;1.60;;;18.40;99.90;;;;;;5053490;28;20569;-70
2022/10/09 12:43:56;;;;;;;5.30;1.75;;;18.60;99.90;;;;;;5052739;28;20081;-71
2022/10/09 12:46:33;;;;;;;6.10;1.60;;;18.70;99.90;;;;;;5053437;28;20112;-71
2022/10/09 12:49:02;;;;;;;11.13;3.97;;;18.90;99.90;;;;;;5052382;28;20033;-73
2022/10/09 12:51:31;;;;;;;18.05;2.88;;;18.80;99.90;;;;;;5052286;28;20055;-75
2022/10/09 12:53:56;;;;;;;8.18;2.97;;;18.90;99.90;;;;;;5050870;28;20021;-73
2022/10/09 12:56:28;;;;;;;7.43;1.80;;;18.80;99.90;;;;;;5033297;28;20039;-72
2022/10/09 12:58:56;;;;;;;11.45;2.25;;;18.60;99.90;;;;;;5049287;28;20382;-71
2022/10/09 13:01:23;;;;;;;6.70;2.40;;;18.70;99.90;;;;;;5050363;28;20536;-74
2022/10/09 13:03:56;;;;;;;8.57;3.05;;;18.50;99.90;;;;;;5050449;28;20076;-74
2022/10/09 13:06:41;;;;;;;12.20;5.30;;;18.10;99.90;;;;;;5052663;28;20348;-74